Saint John, Virgin Islands
Current Conditions -  °F | °C
As of 11:00 PM on Friday 21 Nov 2014 (Local Time) from TUPJ Reporting Station
Scattered Clouds Scattered Clouds  
Wind Chill: 77°   Ceiling: Unl
Heat Index: 78°   Visibility: 6mi
Dew Point: 75°   Wind: 6mph
Humidity: 94%   Direction: 110°ESE
Pressure: 30.03"   Gusts: NA
Location:  18.33°N, 64.79°W
Report Text: TUPJ 220300Z 11005KT 9999 SCT019 25/24 Q1017 RMK A3003
Loading
Personal Weather Stations






























Interactive Weather Map New forecast layout! Learn more

10-Day Weather Forecast

Advertisements
Track Severe Weather on mobile